createdAt,value
2022-08-07T00:01:44.288Z,99533.16
2022-08-07T00:04:11.191Z,99524.41
2022-08-07T00:06:51.162Z,99531.56
2022-08-07T00:09:29.247Z,99530.78
2022-08-07T00:12:04.877Z,99531.88
2022-08-07T00:14:33.991Z,99516.19
2022-08-07T00:17:03.730Z,99519.84
2022-08-07T00:20:02.487Z,99524.06
2022-08-07T00:22:35.251Z,99529.66
2022-08-07T00:25:06.985Z,99523.25
2022-08-07T00:27:52.255Z,99523.00
2022-08-07T00:30:26.983Z,99526.75
2022-08-07T00:32:58.268Z,99526.50
2022-08-07T00:35:30.240Z,99532.06
2022-08-07T00:38:02.701Z,99541.53
2022-08-07T00:40:39.028Z,99529.84
2022-08-07T00:43:58.661Z,99539.34
2022-08-07T00:46:02.351Z,99542.69
2022-08-07T00:48:32.607Z,99537.09
2022-08-07T00:51:03.731Z,99535.78
2022-08-07T00:53:39.387Z,99542.69
2022-08-07T00:56:19.161Z,99538.19
2022-08-07T00:58:49.720Z,99541.91
2022-08-07T01:01:20.237Z,99539.72
2022-08-07T01:03:56.508Z,99530.56
2022-08-07T01:06:30.426Z,99535.88
2022-08-07T01:09:02.796Z,99529.22
2022-08-07T01:12:09.538Z,99533.09
2022-08-07T01:14:28.388Z,99537.78
2022-08-07T01:16:58.272Z,99528.13
2022-08-07T01:19:32.611Z,99523.00
2022-08-07T01:22:03.872Z,99530.94
2022-08-07T01:24:38.479Z,99530.13
2022-08-07T01:27:29.140Z,99517.25
2022-08-07T01:29:56.067Z,99523.47
2022-08-07T01:32:24.959Z,99509.50
2022-08-07T01:34:56.065Z,99525.63
2022-08-07T01:37:28.030Z,99511.38
2022-08-07T01:39:59.961Z,99520.97
2022-08-07T01:42:39.442Z,99520.81
2022-08-07T01:45:22.806Z,99520.88
2022-08-07T01:48:21.518Z,99523.38
2022-08-07T01:50:58.912Z,99529.16
2022-08-07T01:54:00.789Z,99516.56
2022-08-07T01:56:25.452Z,99517.22
2022-08-07T01:59:02.258Z,99519.78
2022-08-07T02:01:59.851Z,99510.03
2022-08-07T02:04:28.660Z,99521.63
2022-08-07T02:07:00.126Z,99507.06
2022-08-07T02:09:33.791Z,99505.59
2022-08-07T02:12:29.335Z,99501.84
2022-08-07T02:15:01.746Z,99499.69
2022-08-07T02:17:37.129Z,99505.47
2022-08-07T02:20:17.421Z,99500.22
2022-08-07T02:22:55.102Z,99491.13
2022-08-07T02:26:10.874Z,99501.59
2022-08-07T02:28:24.542Z,99495.81
2022-08-07T02:30:55.141Z,99496.94
2022-08-07T02:33:41.844Z,99490.53
2022-08-07T02:36:30.362Z,99496.31
2022-08-07T02:39:00.627Z,99500.72
2022-08-07T02:41:33.561Z,99486.63
2022-08-07T02:44:06.499Z,99495.53
2022-08-07T02:46:36.812Z,99503.69
2022-08-07T02:49:05.939Z,99499.19
2022-08-07T02:51:49.734Z,99503.50
2022-08-07T02:54:21.811Z,99499.19
2022-08-07T02:56:56.260Z,99498.16
2022-08-07T02:59:27.405Z,99494.94
2022-08-07T03:01:57.569Z,99501.28
2022-08-07T03:04:30.876Z,99502.63
2022-08-07T03:07:07.112Z,99492.63
2022-08-07T03:09:43.838Z,99510.63
2022-08-07T03:12:22.174Z,99501.44
2022-08-07T03:14:52.882Z,99509.91
2022-08-07T03:17:22.170Z,99509.09
2022-08-07T03:19:54.452Z,99501.44
2022-08-07T03:22:29.523Z,99503.97
2022-08-07T03:25:00.982Z,99507.44
2022-08-07T03:27:59.712Z,99501.25
2022-08-07T03:30:20.514Z,99511.75
2022-08-07T03:32:58.505Z,99505.09
2022-08-07T03:35:43.815Z,99504.31
2022-08-07T03:38:21.179Z,99505.91
2022-08-07T03:41:00.369Z,99505.44
2022-08-07T03:43:33.075Z,99497.91
2022-08-07T03:46:10.434Z,99502.06
2022-08-07T03:49:02.548Z,99490.38
2022-08-07T03:51:47.437Z,99494.38
2022-08-07T03:54:36.187Z,99498.38
2022-08-07T03:57:11.846Z,99495.16
2022-08-07T04:00:03.837Z,99489.22
2022-08-07T04:02:33.148Z,99503.66
2022-08-07T04:05:01.917Z,99493.72
2022-08-07T04:07:35.828Z,99498.66
2022-08-07T04:10:15.517Z,99489.31
2022-08-07T04:12:44.593Z,99498.09
2022-08-07T04:15:15.049Z,99489.41
2022-08-07T04:18:57.257Z,99503.16
2022-08-07T04:20:35.172Z,99506.03
2022-08-07T04:23:06.131Z,99506.50
2022-08-07T04:25:39.386Z,99512.25
2022-08-07T04:28:13.542Z,99502.63
2022-08-07T04:30:55.331Z,99516.47
2022-08-07T04:33:27.104Z,99516.41
2022-08-07T04:35:56.789Z,99526.84
2022-08-07T04:38:27.338Z,99518.94
2022-08-07T04:40:56.681Z,99527.88
2022-08-07T04:44:10.625Z,99531.09
2022-08-07T04:46:29.320Z,99537.34
2022-08-07T04:49:17.531Z,99534.78
2022-08-07T04:51:55.771Z,99526.06
2022-08-07T04:54:31.706Z,99530.31
2022-08-07T04:58:10.084Z,99534.78
2022-08-07T05:00:11.306Z,99528.47
2022-08-07T05:02:51.560Z,99533.97
2022-08-07T05:05:53.155Z,99531.75
2022-08-07T05:08:17.285Z,99510.38
2022-08-07T05:11:11.905Z,99527.94
2022-08-07T05:14:54.220Z,99534.94
2022-08-07T05:16:47.539Z,99533.09
2022-08-07T05:19:32.707Z,99536.38
2022-08-07T05:22:26.829Z,99540.69
2022-08-07T05:24:59.548Z,99539.19
2022-08-07T05:28:16.515Z,99545.13
2022-08-07T05:30:30.027Z,99543.13
2022-08-07T05:33:03.361Z,99548.03
2022-08-07T05:35:41.689Z,99554.88
2022-08-07T05:38:12.710Z,99551.47
2022-08-07T05:41:05.310Z,99553.34
2022-08-07T05:43:49.718Z,99542.81
2022-08-07T05:46:30.427Z,99548.44
2022-08-07T05:48:59.816Z,99552.47
2022-08-07T05:51:31.414Z,99550.53
2022-08-07T05:54:09.726Z,99552.13
2022-08-07T05:56:51.336Z,99551.34
2022-08-07T05:59:20.971Z,99546.22
2022-08-07T06:01:51.496Z,99540.44
2022-08-07T06:04:21.324Z,99548.13
2022-08-07T06:07:04.444Z,99555.38
2022-08-07T06:10:04.157Z,99563.66
2022-08-07T06:12:31.673Z,99559.91
2022-08-07T06:15:05.732Z,99557.25
2022-08-07T06:17:38.248Z,99553.75
2022-08-07T06:20:12.681Z,99550.06
2022-08-07T06:23:02.118Z,99552.34
2022-08-07T06:25:54.028Z,99545.72
2022-08-07T06:28:28.127Z,99546.34
2022-08-07T06:30:58.423Z,99547.75
2022-08-07T06:33:27.366Z,99551.03
2022-08-07T06:36:12.201Z,99542.63
2022-08-07T06:38:51.614Z,99541.06
2022-08-07T06:42:00.552Z,99542.22
2022-08-07T06:44:24.247Z,99539.88
2022-08-07T06:47:10.153Z,99535.19
2022-08-07T06:49:51.888Z,99532.34
2022-08-07T06:52:31.825Z,99534.84
2022-08-07T06:55:32.353Z,99524.03
2022-08-07T06:58:04.821Z,99527.56
2022-08-07T07:00:36.864Z,99530.00
2022-08-07T07:03:08.668Z,99525.50
2022-08-07T07:06:03.981Z,99534.91
2022-08-07T07:08:33.549Z,99535.22
2022-08-07T07:11:13.183Z,99528.09
2022-08-07T07:14:01.345Z,99529.69
2022-08-07T07:16:49.459Z,99531.56
2022-08-07T07:19:55.698Z,99521.41
2022-08-07T07:22:36.215Z,99538.34
2022-08-07T07:26:30.564Z,99541.22
2022-08-07T07:28:03.088Z,99516.59
2022-08-07T07:30:40.157Z,99518.94
2022-08-07T07:33:12.388Z,99514.00
2022-08-07T07:36:04.169Z,99506.03
2022-08-07T07:38:36.057Z,99509.88
2022-08-07T07:41:08.548Z,99516.75
2022-08-07T07:44:13.772Z,99509.47
2022-08-07T07:46:37.964Z,99517.53
2022-08-07T07:50:29.732Z,99522.78
2022-08-07T07:52:15.837Z,99508.03
2022-08-07T07:54:51.462Z,99502.09
2022-08-07T07:57:52.586Z,99506.81
2022-08-07T08:00:29.167Z,99506.25
2022-08-07T08:03:06.306Z,99497.78
2022-08-07T08:05:54.496Z,99504.53
2022-08-07T08:08:34.862Z,99503.41
2022-08-07T08:11:16.173Z,99490.66
2022-08-07T08:13:56.393Z,99504.03
2022-08-07T08:16:31.121Z,99495.00
2022-08-07T08:19:17.224Z,99495.53
2022-08-07T08:22:06.305Z,99492.16
2022-08-07T08:25:18.690Z,99481.66
2022-08-07T08:27:57.154Z,99493.56
2022-08-07T08:30:34.810Z,99489.19
2022-08-07T08:33:10.526Z,99483.72
2022-08-07T08:35:49.690Z,99489.47
2022-08-07T08:38:29.528Z,99484.44
2022-08-07T08:41:03.838Z,99481.94
2022-08-07T08:43:41.995Z,99480.44
2022-08-07T08:46:15.465Z,99474.53
2022-08-07T08:48:50.893Z,99482.75
2022-08-07T08:52:12.627Z,99484.66
2022-08-07T08:54:21.921Z,99477.69
2022-08-07T08:56:54.631Z,99479.56
2022-08-07T08:59:30.727Z,99481.44
2022-08-07T09:02:16.689Z,99480.19
2022-08-07T09:05:26.367Z,99482.97
2022-08-07T09:08:10.402Z,99480.22
2022-08-07T09:10:44.935Z,99477.28
2022-08-07T09:13:19.085Z,99473.63
2022-08-07T09:16:25.229Z,99479.34
2022-08-07T09:19:53.438Z,99478.47
2022-08-07T09:24:30.559Z,99483.56
2022-08-07T09:25:17.937Z,99486.22
2022-08-07T09:28:00.606Z,99476.72
2022-08-07T09:30:39.296Z,99486.03
2022-08-07T09:33:41.143Z,99482.28
2022-08-07T09:36:12.792Z,99475.31
2022-08-07T09:38:53.825Z,99467.00
2022-08-07T09:41:36.292Z,99476.34
2022-08-07T09:44:32.676Z,99471.25
2022-08-07T09:47:52.259Z,99471.16
2022-08-07T09:50:19.534Z,99462.47
2022-08-07T09:52:51.743Z,99457.97
2022-08-07T09:55:29.563Z,99458.31
2022-08-07T09:58:42.416Z,99457.25
2022-08-07T10:01:52.240Z,99457.22
2022-08-07T10:04:32.939Z,99445.28
2022-08-07T10:07:25.562Z,99442.34
2022-08-07T10:10:06.283Z,99430.94
2022-08-07T10:12:55.755Z,99446.41
2022-08-07T10:15:44.515Z,99441.75
2022-08-07T10:18:36.949Z,99445.47
2022-08-07T10:22:15.134Z,99446.09
2022-08-07T10:24:27.414Z,99436.59
2022-08-07T10:27:10.547Z,99439.63
2022-08-07T10:30:06.574Z,99426.16
2022-08-07T10:33:06.456Z,99435.03
2022-08-07T10:35:55.348Z,99414.34
2022-08-07T10:38:48.238Z,99420.66
2022-08-07T10:41:51.609Z,99409.09
2022-08-07T10:44:37.792Z,99409.41
2022-08-07T10:47:18.728Z,99411.59
2022-08-07T10:49:59.766Z,99402.25
2022-08-07T10:52:34.474Z,99394.28
2022-08-07T10:55:27.108Z,99386.09
2022-08-07T10:58:06.937Z,99392.03
2022-08-07T11:00:50.267Z,99389.03
2022-08-07T11:03:37.938Z,99391.09
2022-08-07T11:06:23.169Z,99383.00
2022-08-07T11:09:00.920Z,99379.69
2022-08-07T11:11:35.641Z,99379.59
2022-08-07T11:14:43.718Z,99368.53
2022-08-07T11:17:07.102Z,99378.13
2022-08-07T11:19:43.914Z,99371.34
2022-08-07T11:22:32.229Z,99352.94
2022-08-07T11:25:11.057Z,99363.25
2022-08-07T11:28:02.494Z,99351.25
2022-08-07T11:30:41.862Z,99354.19
2022-08-07T11:33:53.352Z,99348.94
2022-08-07T11:36:25.195Z,99347.91
2022-08-07T11:39:00.211Z,99353.94
2022-08-07T11:42:02.520Z,99345.09
2022-08-07T11:44:29.344Z,99326.94
2022-08-07T11:47:02.729Z,99348.44
2022-08-07T11:50:30.126Z,99337.56
2022-08-07T11:53:05.167Z,99342.38
2022-08-07T11:56:09.555Z,99335.44
2022-08-07T11:58:49.012Z,99338.75
2022-08-07T12:01:59.337Z,99341.03
2022-08-07T12:04:38.061Z,99332.84
2022-08-07T12:07:27.250Z,99327.25
2022-08-07T12:10:05.586Z,99330.47
2022-08-07T12:12:39.146Z,99332.03
2022-08-07T12:15:35.432Z,99312.94
2022-08-07T12:18:11.348Z,99324.75
2022-08-07T12:20:49.327Z,99318.13
2022-08-07T12:24:05.919Z,99320.56
2022-08-07T12:26:29.763Z,99313.84
2022-08-07T12:29:08.734Z,99310.81
2022-08-07T12:32:02.236Z,99309.72
2022-08-07T12:34:33.740Z,99303.13
2022-08-07T12:37:08.745Z,99306.75
2022-08-07T12:39:50.545Z,99292.50
2022-08-07T12:42:28.118Z,99291.53
2022-08-07T12:44:59.272Z,99289.44
2022-08-07T12:47:37.452Z,99284.78
2022-08-07T12:50:38.697Z,99289.78
2022-08-07T12:53:05.204Z,99290.94
2022-08-07T12:56:02.975Z,99297.41
2022-08-07T12:58:39.530Z,99296.66
2022-08-07T13:01:21.872Z,99301.84
2022-08-07T13:04:13.677Z,99281.97
2022-08-07T13:08:13.560Z,99280.13
2022-08-07T13:10:38.544Z,99272.88
2022-08-07T13:13:48.212Z,99272.31
2022-08-07T13:16:13.656Z,99268.34
2022-08-07T13:18:50.701Z,99270.94
2022-08-07T13:21:37.587Z,99260.75
2022-08-07T13:24:20.835Z,99265.28
2022-08-07T13:27:02.875Z,99260.09
2022-08-07T13:29:42.446Z,99258.75
2022-08-07T13:32:31.885Z,99253.69
2022-08-07T13:35:08.758Z,99247.66
2022-08-07T13:37:43.358Z,99240.25
2022-08-07T13:40:35.914Z,99233.34
2022-08-07T13:43:13.722Z,99246.66
2022-08-07T13:46:11.145Z,99243.81
2022-08-07T13:48:38.990Z,99232.44
2022-08-07T13:51:27.293Z,99235.97
2022-08-07T13:54:03.064Z,99228.34
2022-08-07T13:56:36.119Z,99227.75
2022-08-07T13:59:15.620Z,99224.13
2022-08-07T14:02:03.551Z,99227.41
2022-08-07T14:04:49.354Z,99213.81
2022-08-07T14:07:22.946Z,99218.09
2022-08-07T14:10:08.445Z,99219.94
2022-08-07T14:12:54.749Z,99215.66
2022-08-07T14:15:35.079Z,99207.38
2022-08-07T14:18:27.531Z,99211.94
2022-08-07T14:21:20.659Z,99207.19
2022-08-07T14:24:01.197Z,99201.50
2022-08-07T14:30:07.962Z,99198.16
2022-08-07T14:32:16.149Z,99182.09
2022-08-07T14:34:49.397Z,99183.91
2022-08-07T14:37:36.030Z,99174.41
2022-08-07T14:40:17.170Z,99191.09
2022-08-07T14:43:01.483Z,99191.94
2022-08-07T14:45:49.157Z,99193.25
2022-08-07T14:48:21.490Z,99191.94
2022-08-07T14:50:57.725Z,99183.22
2022-08-07T14:54:08.615Z,99183.09
2022-08-07T14:56:30.072Z,99178.88
2022-08-07T14:59:02.810Z,99184.38
2022-08-07T15:01:42.521Z,99185.47
2022-08-07T15:07:17.765Z,99182.19
2022-08-07T15:09:59.676Z,99185.03
2022-08-07T15:12:34.266Z,99182.81
2022-08-07T15:15:09.221Z,99185.91
2022-08-07T15:17:55.895Z,99171.03
2022-08-07T15:20:33.840Z,99176.91
2022-08-07T15:23:21.649Z,99170.75
2022-08-07T15:26:21.061Z,99175.31
2022-08-07T15:32:01.853Z,99177.19
2022-08-07T15:34:35.357Z,99167.91
2022-08-07T15:37:06.981Z,99164.00
2022-08-07T15:42:51.714Z,99157.13
2022-08-07T15:48:25.765Z,99159.66
2022-08-07T15:51:01.367Z,99147.00
2022-08-07T15:53:42.175Z,99156.19
2022-08-07T15:56:24.673Z,99156.78
2022-08-07T15:58:57.901Z,99156.97
2022-08-07T16:01:38.818Z,99148.25
2022-08-07T16:04:14.755Z,99148.56
2022-08-07T16:06:50.354Z,99149.06
2022-08-07T16:09:41.967Z,99151.25
2022-08-07T16:12:25.063Z,99145.13
2022-08-07T16:15:42.112Z,99143.25
2022-08-07T16:18:08.258Z,99136.63
2022-08-07T16:21:42.982Z,99143.91
2022-08-07T16:23:53.986Z,99148.97
2022-08-07T16:26:36.263Z,99136.78
2022-08-07T16:30:07.140Z,99137.28
2022-08-07T16:32:06.224Z,99135.56
2022-08-07T16:34:41.145Z,99132.41
2022-08-07T16:38:06.696Z,99141.72
2022-08-07T16:41:16.474Z,99143.44
2022-08-07T16:44:46.405Z,99149.31
2022-08-07T16:47:36.001Z,99139.03
2022-08-07T16:50:35.679Z,99131.13
2022-08-07T16:54:02.756Z,99138.56
2022-08-07T16:56:13.654Z,99141.69
2022-08-07T16:59:10.676Z,99129.72
2022-08-07T17:01:50.422Z,99127.38
2022-08-07T17:04:32.318Z,99131.94
2022-08-07T17:07:10.192Z,99132.09
2022-08-07T17:10:08.114Z,99129.72
2022-08-07T17:12:46.193Z,99139.81
2022-08-07T17:15:21.005Z,99132.09
2022-08-07T17:18:00.114Z,99136.50
2022-08-07T17:20:35.563Z,99139.84
2022-08-07T17:23:16.935Z,99134.00
2022-08-07T17:25:54.965Z,99130.69
2022-08-07T17:28:41.288Z,99142.50
2022-08-07T17:31:26.756Z,99148.84
2022-08-07T17:34:18.267Z,99152.94
2022-08-07T17:36:59.962Z,99141.56
2022-08-07T17:39:58.458Z,99152.94
2022-08-07T17:42:59.742Z,99153.41
2022-08-07T17:45:35.290Z,99149.16
2022-08-07T17:48:11.116Z,99154.53
2022-08-07T17:50:56.431Z,99152.16
2022-08-07T17:54:00.151Z,99155.81
2022-08-07T17:56:31.911Z,99153.13
2022-08-07T17:59:05.743Z,99154.03
2022-08-07T18:01:47.335Z,99156.59
2022-08-07T18:04:31.137Z,99157.22
2022-08-07T18:07:20.424Z,99153.72
2022-08-07T18:10:07.442Z,99153.72
2022-08-07T18:12:53.016Z,99164.78
2022-08-07T18:15:32.754Z,99163.50
2022-08-07T18:18:46.955Z,99168.41
2022-08-07T18:21:37.188Z,99173.72
2022-08-07T18:24:00.970Z,99173.88
2022-08-07T18:27:10.648Z,99176.69
2022-08-07T18:30:31.453Z,99172.38
2022-08-07T18:33:39.191Z,99190.69
2022-08-07T18:36:32.821Z,99197.25
2022-08-07T18:40:07.038Z,99193.78
2022-08-07T18:42:13.506Z,99202.56
2022-08-07T18:45:43.955Z,99201.59
2022-08-07T18:48:01.456Z,99215.00
2022-08-07T18:50:47.005Z,99214.94
2022-08-07T18:53:36.963Z,99218.22
2022-08-07T18:56:15.886Z,99224.97
2022-08-07T18:58:58.352Z,99221.84
2022-08-07T19:02:32.999Z,99234.44
2022-08-07T19:04:38.683Z,99238.63
2022-08-07T19:07:34.650Z,99236.88
2022-08-07T19:10:14.831Z,99234.44
2022-08-07T19:13:11.844Z,99246.84
2022-08-07T19:16:04.931Z,99256.06
2022-08-07T19:18:44.648Z,99251.81
2022-08-07T19:21:47.466Z,99247.06
2022-08-07T19:24:11.773Z,99257.09
2022-08-07T19:28:30.999Z,99260.06
2022-08-07T19:31:05.543Z,99267.25
2022-08-07T19:32:46.934Z,99265.06
2022-08-07T19:35:24.504Z,99268.44
2022-08-07T19:37:58.318Z,99270.31
2022-08-07T19:40:31.151Z,99272.38
2022-08-07T19:43:08.397Z,99275.19
2022-08-07T19:46:07.669Z,99278.44
2022-08-07T19:48:42.605Z,99271.50
2022-08-07T19:51:20.172Z,99275.09
2022-08-07T19:54:31.046Z,99277.56
2022-08-07T19:58:02.557Z,99277.38
2022-08-07T19:59:41.181Z,99281.44
2022-08-07T20:02:15.750Z,99276.00
2022-08-07T20:04:51.827Z,99278.56
2022-08-07T20:07:46.433Z,99268.56
2022-08-07T20:10:36.967Z,99284.88
2022-08-07T20:13:22.820Z,99286.34
2022-08-07T20:15:55.240Z,99274.66
2022-08-07T20:18:32.684Z,99274.78
2022-08-07T20:21:20.966Z,99258.50
2022-08-07T20:23:54.899Z,99271.34
2022-08-07T20:26:32.233Z,99261.84
2022-08-07T20:29:46.711Z,99272.53
2022-08-07T20:32:00.644Z,99269.44
2022-08-07T20:34:49.355Z,99280.25
2022-08-07T20:37:25.202Z,99261.16
2022-08-07T20:40:02.979Z,99266.88
2022-08-07T20:42:35.203Z,99273.53
2022-08-07T20:46:24.250Z,99269.09
2022-08-07T20:47:58.381Z,99260.34
2022-08-07T20:50:29.101Z,99274.22
2022-08-07T20:53:00.904Z,99256.28
2022-08-07T20:55:31.968Z,99267.00
2022-08-07T20:58:03.270Z,99267.91
2022-08-07T21:00:42.580Z,99268.19
2022-08-07T21:03:14.952Z,99265.31
2022-08-07T21:05:55.800Z,99268.91
2022-08-07T21:08:37.002Z,99270.06
2022-08-07T21:11:10.686Z,99262.69
2022-08-07T21:13:57.495Z,99268.63
2022-08-07T21:16:37.769Z,99262.84
2022-08-07T21:19:32.145Z,99263.81
2022-08-07T21:22:19.525Z,99270.75
2022-08-07T21:25:12.035Z,99277.41
2022-08-07T21:27:53.794Z,99273.25
2022-08-07T21:30:30.115Z,99273.81
2022-08-07T21:33:14.144Z,99283.94
2022-08-07T21:36:05.630Z,99276.06
2022-08-07T21:38:45.481Z,99276.16
2022-08-07T21:41:25.760Z,99281.47
2022-08-07T21:43:58.460Z,99283.63
2022-08-07T21:46:37.092Z,99281.03
2022-08-07T21:49:14.538Z,99291.69
2022-08-07T21:51:55.704Z,99287.47
2022-08-07T21:54:30.963Z,99297.53
2022-08-07T21:57:30.788Z,99296.28
2022-08-07T22:00:07.416Z,99296.28
2022-08-07T22:02:42.848Z,99290.81
2022-08-07T22:05:22.184Z,99308.41
2022-08-07T22:08:03.397Z,99320.38
2022-08-07T22:10:35.619Z,99316.91
2022-08-07T22:13:09.398Z,99312.41
2022-08-07T22:16:44.521Z,99310.56
2022-08-07T22:18:37.126Z,99313.28
2022-08-07T22:21:12.562Z,99317.84
2022-08-07T22:23:45.581Z,99315.19
2022-08-07T22:26:21.041Z,99301.34
2022-08-07T22:28:58.384Z,99302.19
2022-08-07T22:31:59.440Z,99307.50
2022-08-07T22:34:35.603Z,99309.09
2022-08-07T22:37:12.404Z,99310.75
2022-08-07T22:39:53.750Z,99312.34
2022-08-07T22:42:25.573Z,99317.13
2022-08-07T22:45:02.258Z,99319.00
2022-08-07T22:48:02.165Z,99309.97
2022-08-07T22:51:06.443Z,99312.91
2022-08-07T22:54:06.869Z,99316.91
2022-08-07T22:56:46.818Z,99317.72
2022-08-07T22:59:42.557Z,99317.72
2022-08-07T23:02:40.032Z,99321.16
2022-08-07T23:06:08.856Z,99307.06
2022-08-07T23:08:46.096Z,99313.97
2022-08-07T23:11:35.093Z,99313.19
2022-08-07T23:14:26.292Z,99312.13
2022-08-07T23:17:15.452Z,99317.44
2022-08-07T23:20:10.052Z,99315.03
2022-08-07T23:22:52.443Z,99326.72
2022-08-07T23:25:34.442Z,99320.59
2022-08-07T23:28:21.129Z,99311.84
2022-08-07T23:31:18.603Z,99315.56
2022-08-07T23:34:38.155Z,99313.69
2022-08-07T23:37:22.336Z,99319.25
2022-08-07T23:40:04.472Z,99322.19
2022-08-07T23:42:53.424Z,99318.72
2022-08-07T23:45:33.260Z,99308.34
2022-08-07T23:49:02.072Z,99312.31
2022-08-07T23:53:00.393Z,99309.94
2022-08-07T23:54:43.824Z,99312.09
2022-08-07T23:57:20.325Z,99307.00
